createdAt,value
2019-06-26T00:01:23.365Z,101546.47
2019-06-26T00:03:54.285Z,101547.16
2019-06-26T00:06:25.287Z,101544.39
2019-06-26T00:08:56.335Z,101552.55
2019-06-26T00:11:27.251Z,101552.03
2019-06-26T00:13:58.302Z,101547.73
2019-06-26T00:16:29.298Z,101552.47
2019-06-26T00:19:00.256Z,101556.91
2019-06-26T00:21:31.221Z,101556.53
2019-06-26T00:24:02.190Z,101560.45
2019-06-26T00:26:33.107Z,101561.06
2019-06-26T00:29:05.139Z,101563.91
2019-06-26T00:31:36.058Z,101562.34
2019-06-26T00:34:07.179Z,101558.55
2019-06-26T00:36:38.205Z,101553.41
2019-06-26T00:39:09.153Z,101555.29
2019-06-26T00:41:40.135Z,101549.88
2019-06-26T00:44:11.116Z,101554.79
2019-06-26T00:46:42.123Z,101548.85
2019-06-26T00:49:13.098Z,101563.31
2019-06-26T00:51:44.014Z,101549.61
2019-06-26T00:54:14.918Z,101555.16
2019-06-26T00:56:45.875Z,101563.01
2019-06-26T00:59:16.826Z,101562.50
2019-06-26T01:01:47.825Z,101567.56
2019-06-26T01:04:20.393Z,101554.32
2019-06-26T01:06:51.472Z,101560.42
2019-06-26T01:09:22.457Z,101554.44
2019-06-26T01:11:53.540Z,101545.02
2019-06-26T01:14:24.496Z,101557.46
2019-06-26T01:16:55.585Z,101560.99
2019-06-26T01:19:26.685Z,101563.16
2019-06-26T01:21:57.836Z,101566.05
2019-06-26T01:24:28.978Z,101568.44
2019-06-26T01:26:59.894Z,101568.91
2019-06-26T01:29:32.699Z,101564.34
2019-06-26T01:32:04.018Z,101560.33
2019-06-26T01:34:35.074Z,101560.64
2019-06-26T01:37:08.870Z,101565.54
2019-06-26T01:39:39.855Z,101563.67
2019-06-26T01:42:10.960Z,101569.82
2019-06-26T01:44:42.186Z,101575.50
2019-06-26T01:47:13.360Z,101569.75
2019-06-26T01:49:44.547Z,101578.97
2019-06-26T01:52:15.540Z,101576.17
2019-06-26T01:54:46.589Z,101579.46
2019-06-26T01:57:17.773Z,101565.30
2019-06-26T01:59:48.884Z,101576.16
2019-06-26T02:02:19.795Z,101578.83
2019-06-26T02:04:50.733Z,101573.93
2019-06-26T02:07:21.803Z,101573.22
2019-06-26T02:09:53.276Z,101575.00
2019-06-26T02:12:24.433Z,101569.19
2019-06-26T02:14:55.584Z,101577.25
2019-06-26T02:17:26.710Z,101562.76
2019-06-26T02:19:57.750Z,101560.66
2019-06-26T02:22:28.894Z,101563.21
2019-06-26T02:24:59.977Z,101559.21
2019-06-26T02:27:31.047Z,101563.48
2019-06-26T02:30:02.166Z,101564.48
2019-06-26T02:32:33.259Z,101563.05
2019-06-26T02:35:09.895Z,101564.05
2019-06-26T02:37:38.969Z,101557.92
2019-06-26T02:40:10.606Z,101555.98
2019-06-26T02:42:41.716Z,101558.95
2019-06-26T02:45:12.912Z,101562.50
2019-06-26T02:47:43.910Z,101562.73
2019-06-26T02:50:14.910Z,101552.66
2019-06-26T02:52:45.988Z,101555.80
2019-06-26T02:55:17.064Z,101552.23
2019-06-26T02:57:48.121Z,101563.25
2019-06-26T03:00:19.240Z,101566.91
2019-06-26T03:02:50.163Z,101564.80
2019-06-26T03:05:21.133Z,101550.75
2019-06-26T03:07:53.563Z,101563.94
2019-06-26T03:10:24.573Z,101555.16
2019-06-26T03:12:55.489Z,101557.57
2019-06-26T03:15:26.485Z,101554.32
2019-06-26T03:17:57.443Z,101559.39
2019-06-26T03:20:31.522Z,101569.95
2019-06-26T03:23:02.527Z,101559.54
2019-06-26T03:25:33.509Z,101560.15
2019-06-26T03:28:04.439Z,101572.68
2019-06-26T03:30:35.414Z,101572.97
2019-06-26T03:33:06.409Z,101564.97
2019-06-26T03:35:40.633Z,101564.97
2019-06-26T03:38:10.098Z,101564.77
2019-06-26T03:40:41.192Z,101561.20
2019-06-26T03:43:12.110Z,101556.41
2019-06-26T03:45:43.144Z,101568.16
2019-06-26T03:48:14.146Z,101557.48
2019-06-26T03:50:45.189Z,101560.95
2019-06-26T03:53:18.660Z,101563.13
2019-06-26T03:55:49.723Z,101553.05
2019-06-26T03:58:20.659Z,101556.31
2019-06-26T04:00:51.534Z,101551.33
2019-06-26T04:03:22.535Z,101557.25
2019-06-26T04:05:53.510Z,101556.20
2019-06-26T04:08:24.676Z,101552.90
2019-06-26T04:10:55.596Z,101557.91
2019-06-26T04:13:27.244Z,101550.84
2019-06-26T04:15:58.557Z,101547.66
2019-06-26T04:18:29.476Z,101568.27
2019-06-26T04:21:00.413Z,101568.55
2019-06-26T04:23:31.451Z,101580.40
2019-06-26T04:26:02.368Z,101564.66
2019-06-26T04:28:33.339Z,101572.25
2019-06-26T04:31:04.431Z,101575.17
2019-06-26T04:33:35.354Z,101571.72
2019-06-26T04:36:06.359Z,101573.40
2019-06-26T04:38:37.298Z,101570.69
2019-06-26T04:41:08.262Z,101573.67
2019-06-26T04:43:39.349Z,101577.80
2019-06-26T04:46:10.307Z,101574.13
2019-06-26T04:48:41.198Z,101577.36
2019-06-26T04:51:12.235Z,101572.94
2019-06-26T04:53:43.326Z,101571.76
2019-06-26T04:56:14.272Z,101575.78
2019-06-26T04:58:45.278Z,101580.20
2019-06-26T05:01:16.331Z,101577.75
2019-06-26T05:03:47.259Z,101567.83
2019-06-26T05:06:18.241Z,101571.23
2019-06-26T05:08:49.252Z,101572.41
2019-06-26T05:11:20.321Z,101574.48
2019-06-26T05:13:51.269Z,101572.59
2019-06-26T05:16:22.284Z,101579.91
2019-06-26T05:18:54.209Z,101583.19
2019-06-26T05:21:25.734Z,101575.75
2019-06-26T05:23:56.798Z,101580.83
2019-06-26T05:26:27.853Z,101584.22
2019-06-26T05:28:58.809Z,101580.73
2019-06-26T05:31:29.837Z,101588.52
2019-06-26T05:34:00.894Z,101582.61
2019-06-26T05:36:32.524Z,101584.78
2019-06-26T05:39:04.626Z,101587.82
2019-06-26T05:41:35.946Z,101588.34
2019-06-26T05:44:06.991Z,101583.06
2019-06-26T05:46:37.876Z,101580.67
2019-06-26T05:49:08.846Z,101586.20
2019-06-26T05:51:40.153Z,101580.77
2019-06-26T05:54:11.191Z,101576.23
2019-06-26T05:56:45.171Z,101581.61
2019-06-26T05:59:14.873Z,101571.55
2019-06-26T06:01:45.835Z,101579.97
2019-06-26T06:04:16.850Z,101577.98
2019-06-26T06:06:50.875Z,101582.79
2019-06-26T06:09:23.010Z,101579.61
2019-06-26T06:11:54.061Z,101580.09
2019-06-26T06:14:25.068Z,101583.73
2019-06-26T06:16:56.818Z,101571.48
2019-06-26T06:19:27.944Z,101573.48
2019-06-26T06:21:59.064Z,101573.09
2019-06-26T06:24:30.142Z,101579.15
2019-06-26T06:27:01.087Z,101577.58
2019-06-26T06:29:33.068Z,101573.06
2019-06-26T06:32:04.009Z,101575.70
2019-06-26T06:34:36.604Z,101579.23
2019-06-26T06:37:07.627Z,101576.48
2019-06-26T06:39:38.562Z,101562.37
2019-06-26T06:42:09.511Z,101571.94
2019-06-26T06:44:40.524Z,101574.53
2019-06-26T06:47:12.381Z,101577.30
2019-06-26T06:49:43.430Z,101570.91
2019-06-26T06:52:16.580Z,101567.25
2019-06-26T06:54:47.201Z,101566.14
2019-06-26T07:00:29.832Z,101558.81
2019-06-26T07:03:03.726Z,101560.98
2019-06-26T07:05:55.537Z,101561.15
2019-06-26T07:08:26.663Z,101559.47
2019-06-26T07:11:05.383Z,101559.96
2019-06-26T07:13:37.920Z,101561.56
2019-06-26T07:16:08.992Z,101553.75
2019-06-26T07:18:40.045Z,101551.67
2019-06-26T07:21:11.130Z,101554.48
2019-06-26T07:23:42.094Z,101557.71
2019-06-26T07:26:13.508Z,101553.77
2019-06-26T07:28:44.740Z,101545.68
2019-06-26T07:31:15.749Z,101551.30
2019-06-26T07:33:46.763Z,101554.79
2019-06-26T07:36:17.746Z,101551.98
2019-06-26T07:38:48.701Z,101545.45
2019-06-26T07:41:19.748Z,101540.39
2019-06-26T07:43:50.738Z,101546.59
2019-06-26T07:46:21.757Z,101559.32
2019-06-26T07:48:52.687Z,101546.26
2019-06-26T07:51:23.662Z,101560.84
2019-06-26T07:53:54.687Z,101559.75
2019-06-26T07:56:25.673Z,101558.19
2019-06-26T07:58:56.732Z,101553.25
2019-06-26T08:01:28.609Z,101559.05
2019-06-26T08:03:59.591Z,101549.53
2019-06-26T08:06:30.593Z,101556.98
2019-06-26T08:09:01.588Z,101555.45
2019-06-26T08:11:32.583Z,101557.36
2019-06-26T08:14:03.602Z,101545.43
2019-06-26T08:16:34.684Z,101537.35
2019-06-26T08:19:05.704Z,101548.31
2019-06-26T08:21:36.615Z,101540.44
2019-06-26T08:24:07.624Z,101548.10
2019-06-26T08:26:38.628Z,101535.17
2019-06-26T08:29:10.506Z,101530.75
2019-06-26T08:31:41.515Z,101534.80
2019-06-26T08:34:12.503Z,101539.78
2019-06-26T08:36:45.477Z,101532.33
2019-06-26T08:39:16.498Z,101536.80
2019-06-26T08:41:48.995Z,101547.36
2019-06-26T08:44:20.027Z,101533.95
2019-06-26T08:46:51.210Z,101533.67
2019-06-26T08:49:26.080Z,101528.45
2019-06-26T08:51:55.041Z,101518.36
2019-06-26T08:54:26.037Z,101518.94
2019-06-26T08:56:57.180Z,101512.44
2019-06-26T08:59:33.383Z,101526.71
2019-06-26T09:02:04.396Z,101500.83
2019-06-26T09:04:35.443Z,101510.93
2019-06-26T09:07:07.740Z,101525.26
2019-06-26T09:09:38.763Z,101509.93
2019-06-26T09:12:09.787Z,101507.41
2019-06-26T09:14:43.695Z,101502.08
2019-06-26T09:17:16.881Z,101504.72
2019-06-26T09:19:47.757Z,101516.34
2019-06-26T09:22:18.714Z,101504.09
2019-06-26T09:24:49.604Z,101500.14
2019-06-26T09:27:23.343Z,101512.70
2019-06-26T09:29:57.170Z,101499.72
2019-06-26T09:32:30.618Z,101502.03
2019-06-26T09:35:01.623Z,101500.11
2019-06-26T09:37:33.588Z,101497.34
2019-06-26T09:40:05.662Z,101493.43
2019-06-26T09:42:36.666Z,101496.78
2019-06-26T09:45:08.881Z,101486.77
2019-06-26T09:47:42.909Z,101483.77
2019-06-26T09:50:27.108Z,101479.84
2019-06-26T09:52:58.206Z,101476.98
2019-06-26T09:55:32.178Z,101483.03
2019-06-26T09:58:03.123Z,101486.45
2019-06-26T10:00:34.361Z,101465.14
2019-06-26T10:03:06.039Z,101474.05
2019-06-26T10:05:36.900Z,101479.48
2019-06-26T10:08:07.815Z,101483.41
2019-06-26T10:10:38.951Z,101472.12
2019-06-26T10:13:09.941Z,101477.78
2019-06-26T10:15:40.927Z,101473.43
2019-06-26T10:18:11.902Z,101483.41
2019-06-26T10:20:45.028Z,101467.69
2019-06-26T10:23:15.994Z,101462.46
2019-06-26T10:25:47.131Z,101475.35
2019-06-26T10:28:18.105Z,101468.31
2019-06-26T10:30:49.115Z,101459.48
2019-06-26T10:36:45.142Z,101455.53
2019-06-26T10:39:23.377Z,101462.78
2019-06-26T10:41:55.188Z,101456.06
2019-06-26T10:44:30.305Z,101462.67
2019-06-26T10:47:01.407Z,101458.00
2019-06-26T10:49:32.483Z,101446.09
2019-06-26T10:52:03.582Z,101446.82
2019-06-26T10:54:34.515Z,101436.27
2019-06-26T10:57:05.637Z,101439.38
2019-06-26T10:59:36.582Z,101438.19
2019-06-26T11:02:07.541Z,101429.99
2019-06-26T11:04:38.621Z,101437.88
2019-06-26T11:07:09.634Z,101426.46
2019-06-26T11:09:40.690Z,101428.34
2019-06-26T11:12:11.603Z,101430.00
2019-06-26T11:14:42.602Z,101415.08
2019-06-26T11:17:13.907Z,101419.45
2019-06-26T11:19:44.920Z,101416.61
2019-06-26T11:22:15.916Z,101413.19
2019-06-26T11:24:47.177Z,101407.03
2019-06-26T11:27:18.330Z,101409.98
2019-06-26T11:30:01.522Z,101406.69
2019-06-26T11:32:32.556Z,101403.30
2019-06-26T11:35:06.709Z,101399.00
2019-06-26T11:37:37.406Z,101407.39
2019-06-26T11:40:08.840Z,101410.07
2019-06-26T11:42:39.811Z,101402.41
2019-06-26T11:45:11.174Z,101395.11
2019-06-26T11:47:45.529Z,101391.60
2019-06-26T11:50:15.989Z,101391.08
2019-06-26T11:53:31.511Z,101377.03
2019-06-26T11:56:06.023Z,101394.49
2019-06-26T11:58:41.173Z,101386.52
2019-06-26T12:01:12.193Z,101379.20
2019-06-26T12:03:43.210Z,101380.80
2019-06-26T12:06:30.772Z,101377.94
2019-06-26T12:12:12.629Z,101373.20
2019-06-26T12:15:00.162Z,101378.78
2019-06-26T12:17:31.147Z,101371.07
2019-06-26T12:20:20.136Z,101358.87
2019-06-26T12:22:51.383Z,101359.20
2019-06-26T12:25:38.953Z,101348.94
2019-06-26T12:28:26.139Z,101341.60
2019-06-26T12:31:18.120Z,101349.77
2019-06-26T12:34:13.413Z,101339.33
2019-06-26T12:37:00.930Z,101337.70
2019-06-26T12:39:48.280Z,101343.13
2019-06-26T12:42:19.287Z,101337.91
2019-06-26T12:44:50.258Z,101331.59
2019-06-26T12:47:37.773Z,101325.59
2019-06-26T12:50:10.182Z,101329.36
2019-06-26T12:52:59.273Z,101322.51
2019-06-26T12:55:46.607Z,101322.16
2019-06-26T12:58:34.027Z,101308.43
2019-06-26T13:01:25.301Z,101310.31
2019-06-26T13:04:12.930Z,101307.53
2019-06-26T13:06:43.973Z,101303.88
2019-06-26T13:09:17.404Z,101310.22
2019-06-26T13:11:48.466Z,101302.67
2019-06-26T13:14:19.520Z,101307.98
2019-06-26T13:16:50.600Z,101300.80
2019-06-26T13:19:21.748Z,101297.30
2019-06-26T13:21:52.829Z,101294.64
2019-06-26T13:24:23.876Z,101290.58
2019-06-26T13:26:54.821Z,101287.54
2019-06-26T13:29:26.986Z,101291.70
2019-06-26T13:31:57.996Z,101278.91
2019-06-26T13:34:29.038Z,101280.47
2019-06-26T13:36:59.976Z,101286.03
2019-06-26T13:39:30.962Z,101266.66
2019-06-26T13:42:01.984Z,101276.11
2019-06-26T13:44:32.868Z,101264.78
2019-06-26T13:47:03.726Z,101257.09
2019-06-26T13:49:34.768Z,101260.13
2019-06-26T13:52:05.729Z,101247.86
2019-06-26T13:54:36.723Z,101243.44
2019-06-26T13:57:07.688Z,101245.26
2019-06-26T13:59:39.916Z,101236.87
2019-06-26T14:02:10.952Z,101241.80
2019-06-26T14:04:42.223Z,101232.27
2019-06-26T14:07:15.468Z,101226.55
2019-06-26T14:09:46.547Z,101234.45
2019-06-26T14:12:19.237Z,101226.58
2019-06-26T14:14:57.437Z,101229.58
2019-06-26T14:17:23.431Z,101218.53
2019-06-26T14:19:54.460Z,101216.66
2019-06-26T14:22:25.485Z,101219.55
2019-06-26T14:24:56.381Z,101210.73
2019-06-26T14:27:27.255Z,101202.96
2019-06-26T14:29:58.203Z,101205.73
2019-06-26T14:32:29.334Z,101201.79
2019-06-26T14:35:00.377Z,101196.99
2019-06-26T14:37:31.431Z,101201.39
2019-06-26T14:40:02.581Z,101199.83
2019-06-26T14:42:33.660Z,101195.47
2019-06-26T14:45:07.164Z,101185.38
2019-06-26T14:47:38.264Z,101191.38
2019-06-26T14:50:10.059Z,101190.42
2019-06-26T14:52:41.289Z,101188.73
2019-06-26T14:55:12.559Z,101198.19
2019-06-26T14:57:43.652Z,101182.84
2019-06-26T15:00:16.748Z,101184.23
2019-06-26T15:02:50.481Z,101190.19
2019-06-26T15:05:21.724Z,101181.34
2019-06-26T15:07:56.439Z,101182.84
2019-06-26T15:10:27.544Z,101187.53
2019-06-26T15:12:58.679Z,101182.73
2019-06-26T15:15:30.591Z,101179.77
2019-06-26T15:18:04.742Z,101182.84
2019-06-26T15:20:41.115Z,101178.50
2019-06-26T15:23:12.109Z,101175.32
2019-06-26T15:25:43.278Z,101176.06
2019-06-26T15:28:14.266Z,101165.76
2019-06-26T15:30:45.399Z,101171.19
2019-06-26T15:33:16.557Z,101157.27
2019-06-26T15:35:47.573Z,101166.95
2019-06-26T15:38:19.608Z,101163.77
2019-06-26T15:40:50.632Z,101167.61
2019-06-26T15:43:21.604Z,101158.13
2019-06-26T15:45:52.634Z,101156.20
2019-06-26T15:48:23.660Z,101159.39
2019-06-26T15:50:56.670Z,101156.43
2019-06-26T15:53:27.833Z,101147.05
2019-06-26T15:55:58.915Z,101150.02
2019-06-26T15:58:29.872Z,101149.81
2019-06-26T16:01:00.991Z,101153.78
2019-06-26T16:03:31.891Z,101144.84
2019-06-26T16:06:02.919Z,101138.69
2019-06-26T16:08:33.836Z,101140.81
2019-06-26T16:11:04.734Z,101131.48
2019-06-26T16:13:35.771Z,101136.17
2019-06-26T16:16:06.847Z,101134.87
2019-06-26T16:18:43.250Z,101128.19
2019-06-26T16:21:14.296Z,101133.19
2019-06-26T16:23:45.259Z,101127.27
2019-06-26T16:26:16.324Z,101127.05
2019-06-26T16:28:47.297Z,101128.34
2019-06-26T16:31:18.363Z,101127.20
2019-06-26T16:33:49.361Z,101128.37
2019-06-26T16:36:20.299Z,101128.27
2019-06-26T16:38:51.260Z,101130.61
2019-06-26T16:41:22.234Z,101128.37
2019-06-26T16:43:53.285Z,101129.65
2019-06-26T16:46:24.201Z,101134.13
2019-06-26T16:48:55.172Z,101131.67
2019-06-26T16:51:26.187Z,101125.83
2019-06-26T16:53:57.292Z,101129.23
2019-06-26T16:56:28.393Z,101129.88
2019-06-26T16:58:59.302Z,101125.80
2019-06-26T17:01:30.264Z,101133.97
2019-06-26T17:04:01.267Z,101131.50
2019-06-26T17:06:33.407Z,101118.98
2019-06-26T17:09:05.923Z,101125.64
2019-06-26T17:11:36.979Z,101127.62
2019-06-26T17:14:08.016Z,101122.20
2019-06-26T17:16:38.960Z,101125.27
2019-06-26T17:19:09.938Z,101123.98
2019-06-26T17:21:40.923Z,101122.50
2019-06-26T17:24:11.958Z,101120.03
2019-06-26T17:26:42.916Z,101119.67
2019-06-26T17:29:13.945Z,101123.68
2019-06-26T17:31:44.895Z,101120.56
2019-06-26T17:34:16.031Z,101116.95
2019-06-26T17:36:47.082Z,101118.78
2019-06-26T17:39:18.167Z,101118.64
2019-06-26T17:41:49.058Z,101117.95
2019-06-26T17:44:20.114Z,101120.56
2019-06-26T17:46:51.093Z,101117.44
2019-06-26T17:49:22.171Z,101117.06
2019-06-26T17:51:53.089Z,101117.21
2019-06-26T17:54:24.010Z,101118.21
2019-06-26T17:56:54.991Z,101119.66
2019-06-26T17:59:25.962Z,101122.88
2019-06-26T18:01:56.941Z,101122.53
2019-06-26T18:04:27.957Z,101119.33
2019-06-26T18:06:58.961Z,101121.66
2019-06-26T18:09:29.959Z,101117.52
2019-06-26T18:12:01.081Z,101122.64
2019-06-26T18:14:32.107Z,101117.27
2019-06-26T18:17:03.128Z,101118.39
2019-06-26T18:19:34.154Z,101119.52
2019-06-26T18:22:05.191Z,101117.82
2019-06-26T18:24:36.207Z,101117.73
2019-06-26T18:27:07.255Z,101118.72
2019-06-26T18:29:38.244Z,101114.94
2019-06-26T18:32:09.374Z,101119.45
2019-06-26T18:34:40.569Z,101116.52
2019-06-26T18:37:11.683Z,101116.97
2019-06-26T18:39:43.035Z,101115.69
2019-06-26T18:42:16.056Z,101118.55
2019-06-26T18:44:47.998Z,101118.99
2019-06-26T18:47:18.999Z,101122.91
2019-06-26T18:49:50.407Z,101119.80
2019-06-26T18:52:21.519Z,101117.36
2019-06-26T18:54:52.685Z,101120.58
2019-06-26T18:57:23.787Z,101120.97
2019-06-26T18:59:54.813Z,101114.36
2019-06-26T19:02:25.903Z,101111.66
2019-06-26T19:04:57.001Z,101112.83
2019-06-26T19:07:28.068Z,101113.23
2019-06-26T19:09:59.296Z,101106.05
2019-06-26T19:12:30.289Z,101105.98
2019-06-26T19:15:06.057Z,101104.22
2019-06-26T19:17:37.091Z,101100.14
2019-06-26T19:20:09.029Z,101101.71
2019-06-26T19:22:40.027Z,101099.05
2019-06-26T19:25:12.301Z,101105.27
2019-06-26T19:27:43.381Z,101100.39
2019-06-26T19:30:14.942Z,101098.54
2019-06-26T19:32:46.140Z,101098.81
2019-06-26T19:35:19.639Z,101099.77
2019-06-26T19:37:50.149Z,101100.52
2019-06-26T19:40:24.099Z,101099.21
2019-06-26T19:42:55.687Z,101104.14
2019-06-26T19:45:27.794Z,101101.12
2019-06-26T19:47:58.947Z,101102.20
2019-06-26T19:50:30.010Z,101099.58
2019-06-26T19:53:01.182Z,101095.41
2019-06-26T19:55:32.483Z,101099.92
2019-06-26T19:58:03.662Z,101101.84
2019-06-26T20:00:34.885Z,101098.47
2019-06-26T20:03:06.237Z,101101.75
2019-06-26T20:05:37.452Z,101097.48
2019-06-26T20:08:08.666Z,101099.90
2019-06-26T20:10:39.839Z,101100.23
2019-06-26T20:13:11.082Z,101101.98
2019-06-26T20:15:42.188Z,101096.52
2019-06-26T20:18:13.275Z,101107.13
2019-06-26T20:20:44.339Z,101106.42
2019-06-26T20:23:15.401Z,101104.20
2019-06-26T20:25:49.454Z,101105.91
2019-06-26T20:28:20.742Z,101093.08
2019-06-26T20:30:51.881Z,101090.53
2019-06-26T20:33:23.198Z,101092.20
2019-06-26T20:35:55.882Z,101089.31
2019-06-26T20:38:27.092Z,101089.83
2019-06-26T20:40:58.198Z,101090.16
2019-06-26T20:43:29.181Z,101085.88
2019-06-26T20:46:00.323Z,101093.07
2019-06-26T20:48:31.486Z,101087.94
2019-06-26T20:51:02.749Z,101090.31
2019-06-26T20:53:34.648Z,101088.61
2019-06-26T20:56:05.830Z,101091.31
2019-06-26T20:58:36.955Z,101085.84
2019-06-26T21:01:09.202Z,101080.70
2019-06-26T21:03:40.278Z,101080.20
2019-06-26T21:06:11.267Z,101076.09
2019-06-26T21:08:42.401Z,101075.73
2019-06-26T21:11:15.780Z,101079.47
2019-06-26T21:13:46.392Z,101080.94
2019-06-26T21:16:17.552Z,101081.42
2019-06-26T21:18:48.734Z,101078.85
2019-06-26T21:21:20.222Z,101077.47
2019-06-26T21:23:51.519Z,101078.64
2019-06-26T21:26:22.582Z,101082.08
2019-06-26T21:28:53.695Z,101084.13
2019-06-26T21:31:24.918Z,101076.63
2019-06-26T21:33:56.002Z,101074.73
2019-06-26T21:36:27.036Z,101075.41
2019-06-26T21:38:58.170Z,101074.89
2019-06-26T21:41:29.314Z,101069.73
2019-06-26T21:44:00.415Z,101066.11
2019-06-26T21:46:31.542Z,101068.28
2019-06-26T21:49:04.227Z,101070.97
2019-06-26T21:51:35.391Z,101066.84
2019-06-26T21:54:06.597Z,101053.40
2019-06-26T21:56:37.737Z,101050.36
2019-06-26T21:59:08.837Z,101052.72
2019-06-26T22:01:39.955Z,101052.55
2019-06-26T22:04:11.092Z,101055.42
2019-06-26T22:06:42.290Z,101051.72
2019-06-26T22:09:13.383Z,101050.70
2019-06-26T22:11:45.609Z,101044.72
2019-06-26T22:14:16.794Z,101051.72
2019-06-26T22:16:47.877Z,101045.38
2019-06-26T22:19:18.998Z,101046.89
2019-06-26T22:21:50.089Z,101049.04
2019-06-26T22:24:21.177Z,101035.89
2019-06-26T22:26:52.353Z,101040.66
2019-06-26T22:29:23.570Z,101035.16
2019-06-26T22:31:54.743Z,101040.92
2019-06-26T22:34:26.168Z,101037.14
2019-06-26T22:36:57.235Z,101034.92
2019-06-26T22:39:28.299Z,101033.22
2019-06-26T22:42:01.707Z,101031.34
2019-06-26T22:44:32.847Z,101035.10
2019-06-26T22:47:04.007Z,101034.25
2019-06-26T22:49:35.358Z,101029.76
2019-06-26T22:52:06.355Z,101033.14
2019-06-26T22:54:37.475Z,101032.77
2019-06-26T22:57:08.612Z,101029.50
2019-06-26T22:59:39.552Z,101018.91
2019-06-26T23:02:10.587Z,101012.06
2019-06-26T23:04:41.626Z,101009.16
2019-06-26T23:07:12.670Z,101005.56
2019-06-26T23:09:43.664Z,101009.27
2019-06-26T23:12:14.712Z,101005.53
2019-06-26T23:14:45.623Z,100998.00
2019-06-26T23:17:16.613Z,100990.81
2019-06-26T23:19:47.820Z,101007.84
2019-06-26T23:22:18.882Z,100999.19
2019-06-26T23:24:50.068Z,100997.18
2019-06-26T23:27:21.299Z,100995.30
2019-06-26T23:29:52.389Z,100994.14
2019-06-26T23:32:23.533Z,100992.92
2019-06-26T23:34:54.519Z,100987.09
2019-06-26T23:37:25.587Z,100988.09
2019-06-26T23:39:56.524Z,100991.12
2019-06-26T23:42:27.499Z,100984.24
2019-06-26T23:44:58.471Z,100978.25
2019-06-26T23:47:29.467Z,100972.63
2019-06-26T23:50:00.509Z,100963.70
2019-06-26T23:52:31.512Z,100972.39
2019-06-26T23:55:02.533Z,100959.59
2019-06-26T23:57:33.521Z,100960.03
